Terminal Aerodrome Forecast
Issued by NWS

Home | Current Version | Previous Version | Text Only | Print | Product List | Glossary On
Versions: 1 2 3 4 5 6 7 8 9 10 11 12 13 14 15 16 17 18 19 20
558
FTUS43 KGRR 230530
TAFAZO
TAF
KAZO 230530Z 2306/2406 12005KT P6SM SCT200
     FM231400 14009KT P6SM BKN100
     FM231900 15011KT P6SM OVC060
     FM240300 15014G22KT 4SM -RA BR OVC040=

USA.gov is the U.S. government's official web portal to all federal, state and local government web resources and services.